sensor_id;sensor_type;location;lat;lon;timestamp;temperature;humidity
35497;DHT22;21609;49.298;6.844;2024-01-27T00:01:36;17.00;50.20
35497;DHT22;21609;49.298;6.844;2024-01-27T00:04:02;17.00;50.20
35497;DHT22;21609;49.298;6.844;2024-01-27T00:06:27;17.00;50.20
35497;DHT22;21609;49.298;6.844;2024-01-27T00:08:53;17.00;50.30
35497;DHT22;21609;49.298;6.844;2024-01-27T00:11:19;16.90;50.20
35497;DHT22;21609;49.298;6.844;2024-01-27T00:13:45;16.90;50.20
35497;DHT22;21609;49.298;6.844;2024-01-27T00:16:11;16.90;50.20
35497;DHT22;21609;49.298;6.844;2024-01-27T00:18:37;16.90;50.30
35497;DHT22;21609;49.298;6.844;2024-01-27T00:21:04;16.90;50.30
35497;DHT22;21609;49.298;6.844;2024-01-27T00:23:29;16.80;50.20
35497;DHT22;21609;49.298;6.844;2024-01-27T00:25:55;16.80;50.30
35497;DHT22;21609;49.298;6.844;2024-01-27T00:28:21;16.80;50.30
35497;DHT22;21609;49.298;6.844;2024-01-27T00:30:46;16.80;50.30
35497;DHT22;21609;49.298;6.844;2024-01-27T00:33:12;16.80;50.30
35497;DHT22;21609;49.298;6.844;2024-01-27T00:35:37;16.80;50.30
35497;DHT22;21609;49.298;6.844;2024-01-27T00:38:03;16.80;50.30
35497;DHT22;21609;49.298;6.844;2024-01-27T00:40:29;16.70;50.30
35497;DHT22;21609;49.298;6.844;2024-01-27T00:42:54;16.80;50.30
35497;DHT22;21609;49.298;6.844;2024-01-27T00:45:20;16.70;50.30
35497;DHT22;21609;49.298;6.844;2024-01-27T00:47:51;16.70;50.40
35497;DHT22;21609;49.298;6.844;2024-01-27T00:50:16;16.70;50.30
35497;DHT22;21609;49.298;6.844;2024-01-27T00:52:42;16.70;50.30
35497;DHT22;21609;49.298;6.844;2024-01-27T00:55:08;16.70;50.30
35497;DHT22;21609;49.298;6.844;2024-01-27T00:57:35;16.60;50.30
35497;DHT22;21609;49.298;6.844;2024-01-27T01:00:01;16.60;50.30
35497;DHT22;21609;49.298;6.844;2024-01-27T01:02:27;16.60;50.30
35497;DHT22;21609;49.298;6.844;2024-01-27T01:04:53;16.60;50.30
35497;DHT22;21609;49.298;6.844;2024-01-27T01:07:19;16.60;50.30
35497;DHT22;21609;49.298;6.844;2024-01-27T01:09:44;16.60;50.40
35497;DHT22;21609;49.298;6.844;2024-01-27T01:12:10;16.60;50.40
35497;DHT22;21609;49.298;6.844;2024-01-27T01:14:35;16.60;50.40
35497;DHT22;21609;49.298;6.844;2024-01-27T01:17:01;16.60;50.40
35497;DHT22;21609;49.298;6.844;2024-01-27T01:19:26;16.60;50.30
35497;DHT22;21609;49.298;6.844;2024-01-27T01:21:52;16.60;50.30
35497;DHT22;21609;49.298;6.844;2024-01-27T01:24:18;16.60;50.40
35497;DHT22;21609;49.298;6.844;2024-01-27T01:26:43;16.60;50.40
35497;DHT22;21609;49.298;6.844;2024-01-27T01:29:09;16.60;50.40
35497;DHT22;21609;49.298;6.844;2024-01-27T01:31:34;16.60;50.50
35497;DHT22;21609;49.298;6.844;2024-01-27T01:34:00;16.50;50.40
35497;DHT22;21609;49.298;6.844;2024-01-27T01:36:25;16.50;50.50
35497;DHT22;21609;49.298;6.844;2024-01-27T01:38:51;16.50;50.50
35497;DHT22;21609;49.298;6.844;2024-01-27T01:41:16;16.50;50.50
35497;DHT22;21609;49.298;6.844;2024-01-27T01:43:42;16.40;50.50
35497;DHT22;21609;49.298;6.844;2024-01-27T01:46:07;16.40;50.50
35497;DHT22;21609;49.298;6.844;2024-01-27T01:48:33;16.40;50.50
35497;DHT22;21609;49.298;6.844;2024-01-27T01:50:59;16.40;50.50
35497;DHT22;21609;49.298;6.844;2024-01-27T01:53:25;16.40;50.50
35497;DHT22;21609;49.298;6.844;2024-01-27T01:55:52;16.40;50.50
35497;DHT22;21609;49.298;6.844;2024-01-27T01:58:18;16.30;50.50
35497;DHT22;21609;49.298;6.844;2024-01-27T02:00:43;16.40;50.50
35497;DHT22;21609;49.298;6.844;2024-01-27T02:03:13;16.30;50.50
35497;DHT22;21609;49.298;6.844;2024-01-27T02:05:39;16.30;50.50
35497;DHT22;21609;49.298;6.844;2024-01-27T02:08:05;16.30;50.50
35497;DHT22;21609;49.298;6.844;2024-01-27T02:10:30;16.30;50.60
35497;DHT22;21609;49.298;6.844;2024-01-27T02:13:16;16.30;50.60
35497;DHT22;21609;49.298;6.844;2024-01-27T02:15:43;16.30;50.60
35497;DHT22;21609;49.298;6.844;2024-01-27T02:18:12;16.20;50.60
35497;DHT22;21609;49.298;6.844;2024-01-27T02:20:38;16.20;50.60
35497;DHT22;21609;49.298;6.844;2024-01-27T02:23:04;16.20;50.60
35497;DHT22;21609;49.298;6.844;2024-01-27T02:25:34;16.20;50.60
35497;DHT22;21609;49.298;6.844;2024-01-27T02:28:00;16.20;50.60
35497;DHT22;21609;49.298;6.844;2024-01-27T02:30:26;16.20;50.60
35497;DHT22;21609;49.298;6.844;2024-01-27T02:32:52;16.20;50.60
35497;DHT22;21609;49.298;6.844;2024-01-27T02:35:18;16.10;50.60
35497;DHT22;21609;49.298;6.844;2024-01-27T02:37:44;16.10;50.60
35497;DHT22;21609;49.298;6.844;2024-01-27T02:40:09;16.10;50.70
35497;DHT22;21609;49.298;6.844;2024-01-27T02:42:36;16.10;50.70
35497;DHT22;21609;49.298;6.844;2024-01-27T02:45:02;16.10;50.60
35497;DHT22;21609;49.298;6.844;2024-01-27T02:47:28;16.10;50.70
35497;DHT22;21609;49.298;6.844;2024-01-27T02:49:54;16.10;50.70
35497;DHT22;21609;49.298;6.844;2024-01-27T02:52:19;16.10;50.70
35497;DHT22;21609;49.298;6.844;2024-01-27T02:54:45;16.10;51.30
35497;DHT22;21609;49.298;6.844;2024-01-27T02:57:11;16.10;50.70
35497;DHT22;21609;49.298;6.844;2024-01-27T02:59:37;16.10;50.70
35497;DHT22;21609;49.298;6.844;2024-01-27T03:02:05;16.00;50.70
35497;DHT22;21609;49.298;6.844;2024-01-27T03:04:30;16.00;50.70
35497;DHT22;21609;49.298;6.844;2024-01-27T03:06:56;16.00;50.70
35497;DHT22;21609;49.298;6.844;2024-01-27T03:09:21;16.00;50.70
35497;DHT22;21609;49.298;6.844;2024-01-27T03:11:47;16.00;50.80
35497;DHT22;21609;49.298;6.844;2024-01-27T03:14:12;16.00;50.70
35497;DHT22;21609;49.298;6.844;2024-01-27T03:16:38;16.00;51.40
35497;DHT22;21609;49.298;6.844;2024-01-27T03:19:03;15.90;50.70
35497;DHT22;21609;49.298;6.844;2024-01-27T03:21:29;15.90;50.70
35497;DHT22;21609;49.298;6.844;2024-01-27T03:23:55;15.90;50.70
35497;DHT22;21609;49.298;6.844;2024-01-27T03:26:20;15.90;50.70
35497;DHT22;21609;49.298;6.844;2024-01-27T03:28:46;15.90;50.70
35497;DHT22;21609;49.298;6.844;2024-01-27T03:31:12;15.90;50.70
35497;DHT22;21609;49.298;6.844;2024-01-27T03:33:37;15.90;50.70
35497;DHT22;21609;49.298;6.844;2024-01-27T03:36:03;15.90;50.80
35497;DHT22;21609;49.298;6.844;2024-01-27T03:38:34;15.90;50.80
35497;DHT22;21609;49.298;6.844;2024-01-27T03:41:02;15.80;50.80
35497;DHT22;21609;49.298;6.844;2024-01-27T03:43:27;15.80;50.70
35497;DHT22;21609;49.298;6.844;2024-01-27T03:45:53;15.80;50.80
35497;DHT22;21609;49.298;6.844;2024-01-27T03:48:18;15.80;50.80
35497;DHT22;21609;49.298;6.844;2024-01-27T03:50:44;15.80;50.80
35497;DHT22;21609;49.298;6.844;2024-01-27T03:53:10;15.80;50.80
35497;DHT22;21609;49.298;6.844;2024-01-27T03:55:35;15.80;50.80
35497;DHT22;21609;49.298;6.844;2024-01-27T03:58:01;15.70;50.80
35497;DHT22;21609;49.298;6.844;2024-01-27T04:00:26;15.70;50.80
35497;DHT22;21609;49.298;6.844;2024-01-27T04:02:55;15.70;50.80
35497;DHT22;21609;49.298;6.844;2024-01-27T04:05:20;15.70;50.80
35497;DHT22;21609;49.298;6.844;2024-01-27T04:07:46;15.70;50.80
35497;DHT22;21609;49.298;6.844;2024-01-27T04:10:11;15.70;50.80
35497;DHT22;21609;49.298;6.844;2024-01-27T04:12:37;15.70;50.80
35497;DHT22;21609;49.298;6.844;2024-01-27T04:15:02;15.70;50.80
35497;DHT22;21609;49.298;6.844;2024-01-27T04:17:28;15.70;50.80
35497;DHT22;21609;49.298;6.844;2024-01-27T04:19:53;15.70;50.80
35497;DHT22;21609;49.298;6.844;2024-01-27T04:22:19;15.60;50.80
35497;DHT22;21609;49.298;6.844;2024-01-27T04:24:44;15.60;50.80
35497;DHT22;21609;49.298;6.844;2024-01-27T04:27:10;15.60;50.80
35497;DHT22;21609;49.298;6.844;2024-01-27T04:29:36;15.60;50.80
35497;DHT22;21609;49.298;6.844;2024-01-27T04:32:01;15.60;50.90
35497;DHT22;21609;49.298;6.844;2024-01-27T04:34:27;15.60;50.80
35497;DHT22;21609;49.298;6.844;2024-01-27T04:36:52;15.60;50.90
35497;DHT22;21609;49.298;6.844;2024-01-27T04:39:18;15.60;51.40
35497;DHT22;21609;49.298;6.844;2024-01-27T04:41:43;15.50;50.80
35497;DHT22;21609;49.298;6.844;2024-01-27T04:44:09;15.50;50.80
35497;DHT22;21609;49.298;6.844;2024-01-27T04:46:35;15.50;50.90
35497;DHT22;21609;49.298;6.844;2024-01-27T04:49:00;15.50;50.90
35497;DHT22;21609;49.298;6.844;2024-01-27T04:51:26;15.50;50.90
35497;DHT22;21609;49.298;6.844;2024-01-27T04:53:52;15.50;50.90
35497;DHT22;21609;49.298;6.844;2024-01-27T04:56:17;15.50;50.90
35497;DHT22;21609;49.298;6.844;2024-01-27T04:58:43;15.50;50.90
35497;DHT22;21609;49.298;6.844;2024-01-27T05:01:08;15.50;50.90
35497;DHT22;21609;49.298;6.844;2024-01-27T05:03:34;15.50;51.00
35497;DHT22;21609;49.298;6.844;2024-01-27T05:06:00;15.50;51.00
35497;DHT22;21609;49.298;6.844;2024-01-27T05:08:26;15.50;51.00
35497;DHT22;21609;49.298;6.844;2024-01-27T05:10:51;15.50;50.90
35497;DHT22;21609;49.298;6.844;2024-01-27T05:13:17;15.40;50.90
35497;DHT22;21609;49.298;6.844;2024-01-27T05:15:42;15.40;50.90
35497;DHT22;21609;49.298;6.844;2024-01-27T05:18:08;15.40;50.90
35497;DHT22;21609;49.298;6.844;2024-01-27T05:20:35;15.40;50.90
35497;DHT22;21609;49.298;6.844;2024-01-27T05:23:01;15.40;51.00
35497;DHT22;21609;49.298;6.844;2024-01-27T05:25:26;15.40;50.90
35497;DHT22;21609;49.298;6.844;2024-01-27T05:27:52;15.40;51.00
35497;DHT22;21609;49.298;6.844;2024-01-27T05:30:17;15.40;51.00
35497;DHT22;21609;49.298;6.844;2024-01-27T05:32:43;15.40;51.00
35497;DHT22;21609;49.298;6.844;2024-01-27T05:35:08;15.40;51.00
35497;DHT22;21609;49.298;6.844;2024-01-27T05:37:35;15.30;50.90
35497;DHT22;21609;49.298;6.844;2024-01-27T05:40:01;15.30;50.90
35497;DHT22;21609;49.298;6.844;2024-01-27T05:42:27;15.30;51.00
35497;DHT22;21609;49.298;6.844;2024-01-27T05:44:53;15.30;51.00
35497;DHT22;21609;49.298;6.844;2024-01-27T05:47:18;15.30;51.00
35497;DHT22;21609;49.298;6.844;2024-01-27T05:49:44;15.30;51.00
35497;DHT22;21609;49.298;6.844;2024-01-27T05:52:10;15.30;51.00
35497;DHT22;21609;49.298;6.844;2024-01-27T05:54:35;15.30;51.00
35497;DHT22;21609;49.298;6.844;2024-01-27T05:57:01;15.20;51.00
35497;DHT22;21609;49.298;6.844;2024-01-27T05:59:28;15.20;51.00
35497;DHT22;21609;49.298;6.844;2024-01-27T06:01:54;15.20;51.00
35497;DHT22;21609;49.298;6.844;2024-01-27T06:04:19;15.20;51.00
35497;DHT22;21609;49.298;6.844;2024-01-27T06:06:45;15.20;51.00
35497;DHT22;21609;49.298;6.844;2024-01-27T06:09:10;15.20;51.00
35497;DHT22;21609;49.298;6.844;2024-01-27T06:11:36;15.20;51.00
35497;DHT22;21609;49.298;6.844;2024-01-27T06:14:02;15.20;51.10
35497;DHT22;21609;49.298;6.844;2024-01-27T06:16:28;15.20;51.10
35497;DHT22;21609;49.298;6.844;2024-01-27T06:18:53;15.10;51.00
35497;DHT22;21609;49.298;6.844;2024-01-27T06:21:20;15.10;51.10
35497;DHT22;21609;49.298;6.844;2024-01-27T06:23:48;15.10;51.10
35497;DHT22;21609;49.298;6.844;2024-01-27T06:26:14;15.10;51.00
35497;DHT22;21609;49.298;6.844;2024-01-27T06:28:39;15.10;51.10
35497;DHT22;21609;49.298;6.844;2024-01-27T06:31:05;15.10;51.10
35497;DHT22;21609;49.298;6.844;2024-01-27T06:33:34;15.10;51.10
35497;DHT22;21609;49.298;6.844;2024-01-27T06:36:00;15.10;51.00
35497;DHT22;21609;49.298;6.844;2024-01-27T06:38:29;15.10;51.10
35497;DHT22;21609;49.298;6.844;2024-01-27T06:40:57;15.10;51.10
35497;DHT22;21609;49.298;6.844;2024-01-27T06:43:22;15.10;50.90
35497;DHT22;21609;49.298;6.844;2024-01-27T06:45:48;14.80;49.60
35497;DHT22;21609;49.298;6.844;2024-01-27T06:48:14;14.90;50.90
35497;DHT22;21609;49.298;6.844;2024-01-27T06:50:39;15.20;51.00
35497;DHT22;21609;49.298;6.844;2024-01-27T06:53:05;15.40;50.50
35497;DHT22;21609;49.298;6.844;2024-01-27T06:55:30;15.60;50.00
35497;DHT22;21609;49.298;6.844;2024-01-27T06:57:56;15.70;49.90
35497;DHT22;21609;49.298;6.844;2024-01-27T07:00:22;15.70;49.70
35497;DHT22;21609;49.298;6.844;2024-01-27T07:02:47;15.80;49.50
35497;DHT22;21609;49.298;6.844;2024-01-27T07:05:13;15.90;49.30
35497;DHT22;21609;49.298;6.844;2024-01-27T07:07:40;16.00;49.30
35497;DHT22;21609;49.298;6.844;2024-01-27T07:10:07;16.10;49.20
35497;DHT22;21609;49.298;6.844;2024-01-27T07:12:35;16.10;49.00
35497;DHT22;21609;49.298;6.844;2024-01-27T07:15:02;16.20;48.90
35497;DHT22;21609;49.298;6.844;2024-01-27T07:17:27;16.30;48.90
35497;DHT22;21609;49.298;6.844;2024-01-27T07:19:53;16.40;48.80
35497;DHT22;21609;49.298;6.844;2024-01-27T07:22:19;16.40;48.80
35497;DHT22;21609;49.298;6.844;2024-01-27T07:24:44;16.50;48.90
35497;DHT22;21609;49.298;6.844;2024-01-27T07:27:12;16.50;48.90
35497;DHT22;21609;49.298;6.844;2024-01-27T07:29:38;16.60;48.80
35497;DHT22;21609;49.298;6.844;2024-01-27T07:32:04;16.60;48.80
35497;DHT22;21609;49.298;6.844;2024-01-27T07:34:30;16.60;48.70
35497;DHT22;21609;49.298;6.844;2024-01-27T07:36:55;16.70;48.70
35497;DHT22;21609;49.298;6.844;2024-01-27T07:39:21;16.80;48.70
35497;DHT22;21609;49.298;6.844;2024-01-27T07:41:46;16.80;48.70
35497;DHT22;21609;49.298;6.844;2024-01-27T07:44:14;16.80;48.70
35497;DHT22;21609;49.298;6.844;2024-01-27T07:46:41;16.90;48.60
35497;DHT22;21609;49.298;6.844;2024-01-27T07:49:07;16.90;48.80
35497;DHT22;21609;49.298;6.844;2024-01-27T07:51:33;17.00;48.50
35497;DHT22;21609;49.298;6.844;2024-01-27T07:53:59;17.10;48.40
35497;DHT22;21609;49.298;6.844;2024-01-27T07:56:25;17.10;48.50
35497;DHT22;21609;49.298;6.844;2024-01-27T07:58:51;17.20;48.50
35497;DHT22;21609;49.298;6.844;2024-01-27T08:01:18;17.30;48.40
35497;DHT22;21609;49.298;6.844;2024-01-27T08:03:44;17.30;48.50
35497;DHT22;21609;49.298;6.844;2024-01-27T08:06:16;17.30;48.70
35497;DHT22;21609;49.298;6.844;2024-01-27T08:08:47;17.40;48.50
35497;DHT22;21609;49.298;6.844;2024-01-27T08:11:17;17.40;48.70
35497;DHT22;21609;49.298;6.844;2024-01-27T08:13:43;17.40;48.50
35497;DHT22;21609;49.298;6.844;2024-01-27T08:16:09;17.60;48.40
35497;DHT22;21609;49.298;6.844;2024-01-27T08:18:37;17.60;48.40
35497;DHT22;21609;49.298;6.844;2024-01-27T08:21:04;17.60;48.30
35497;DHT22;21609;49.298;6.844;2024-01-27T08:23:29;17.60;48.60
35497;DHT22;21609;49.298;6.844;2024-01-27T08:25:55;17.60;48.60
35497;DHT22;21609;49.298;6.844;2024-01-27T08:28:20;17.70;48.60
35497;DHT22;21609;49.298;6.844;2024-01-27T08:30:46;17.70;48.70
35497;DHT22;21609;49.298;6.844;2024-01-27T08:33:11;17.80;48.50
35497;DHT22;21609;49.298;6.844;2024-01-27T08:35:37;17.80;48.40
35497;DHT22;21609;49.298;6.844;2024-01-27T08:38:03;17.90;48.90
35497;DHT22;21609;49.298;6.844;2024-01-27T08:40:31;18.00;48.20
35497;DHT22;21609;49.298;6.844;2024-01-27T08:42:57;18.20;47.80
35497;DHT22;21609;49.298;6.844;2024-01-27T08:45:22;18.30;47.50
35497;DHT22;21609;49.298;6.844;2024-01-27T08:47:48;18.30;47.50
35497;DHT22;21609;49.298;6.844;2024-01-27T08:50:14;18.50;47.20
35497;DHT22;21609;49.298;6.844;2024-01-27T08:52:39;18.50;47.10
35497;DHT22;21609;49.298;6.844;2024-01-27T08:55:05;18.50;47.90
35497;DHT22;21609;49.298;6.844;2024-01-27T08:57:31;18.50;47.50
35497;DHT22;21609;49.298;6.844;2024-01-27T08:59:56;18.50;47.80
35497;DHT22;21609;49.298;6.844;2024-01-27T09:02:22;18.40;48.00
35497;DHT22;21609;49.298;6.844;2024-01-27T09:04:47;18.50;47.90
35497;DHT22;21609;49.298;6.844;2024-01-27T09:07:13;18.50;48.10
35497;DHT22;21609;49.298;6.844;2024-01-27T09:09:38;18.50;48.00
35497;DHT22;21609;49.298;6.844;2024-01-27T09:12:04;18.50;48.10
35497;DHT22;21609;49.298;6.844;2024-01-27T09:14:30;18.60;48.10
35497;DHT22;21609;49.298;6.844;2024-01-27T09:16:55;18.60;48.10
35497;DHT22;21609;49.298;6.844;2024-01-27T09:19:21;18.70;48.30
35497;DHT22;21609;49.298;6.844;2024-01-27T09:21:47;18.70;48.20
35497;DHT22;21609;49.298;6.844;2024-01-27T09:24:13;18.80;48.00
35497;DHT22;21609;49.298;6.844;2024-01-27T09:26:38;18.80;48.00
35497;DHT22;21609;49.298;6.844;2024-01-27T09:29:04;18.90;47.90
35497;DHT22;21609;49.298;6.844;2024-01-27T09:31:30;19.00;47.80
35497;DHT22;21609;49.298;6.844;2024-01-27T09:33:55;19.00;47.80
35497;DHT22;21609;49.298;6.844;2024-01-27T09:36:21;19.00;47.70
35497;DHT22;21609;49.298;6.844;2024-01-27T09:38:47;19.10;47.50
35497;DHT22;21609;49.298;6.844;2024-01-27T09:41:14;19.10;47.40
35497;DHT22;21609;49.298;6.844;2024-01-27T09:43:42;19.30;47.30
35497;DHT22;21609;49.298;6.844;2024-01-27T09:46:13;19.40;47.00
35497;DHT22;21609;49.298;6.844;2024-01-27T09:48:39;19.50;46.80
35497;DHT22;21609;49.298;6.844;2024-01-27T09:51:09;19.60;46.60
35497;DHT22;21609;49.298;6.844;2024-01-27T09:53:34;19.70;46.40
35497;DHT22;21609;49.298;6.844;2024-01-27T09:56:01;19.80;46.00
35497;DHT22;21609;49.298;6.844;2024-01-27T09:58:29;19.90;46.00
35497;DHT22;21609;49.298;6.844;2024-01-27T10:00:59;19.90;45.90
35497;DHT22;21609;49.298;6.844;2024-01-27T10:03:26;20.10;45.80
35497;DHT22;21609;49.298;6.844;2024-01-27T10:05:53;20.20;45.60
35497;DHT22;21609;49.298;6.844;2024-01-27T10:08:21;20.20;45.30
35497;DHT22;21609;49.298;6.844;2024-01-27T10:10:47;20.20;45.40
35497;DHT22;21609;49.298;6.844;2024-01-27T10:13:14;20.30;45.30
35497;DHT22;21609;49.298;6.844;2024-01-27T10:15:42;20.50;45.30
35497;DHT22;21609;49.298;6.844;2024-01-27T10:18:08;20.50;44.90
35497;DHT22;21609;49.298;6.844;2024-01-27T10:20:34;20.60;45.00
35497;DHT22;21609;49.298;6.844;2024-01-27T10:23:10;20.60;45.00
35497;DHT22;21609;49.298;6.844;2024-01-27T10:25:40;20.60;44.70
35497;DHT22;21609;49.298;6.844;2024-01-27T10:28:09;20.70;44.80
35497;DHT22;21609;49.298;6.844;2024-01-27T10:30:35;20.80;44.80
35497;DHT22;21609;49.298;6.844;2024-01-27T10:33:01;20.80;44.90
35497;DHT22;21609;49.298;6.844;2024-01-27T10:35:28;20.80;44.80
35497;DHT22;21609;49.298;6.844;2024-01-27T10:37:54;20.80;44.70
35497;DHT22;21609;49.298;6.844;2024-01-27T10:40:21;20.90;44.70
35497;DHT22;21609;49.298;6.844;2024-01-27T10:42:58;20.90;44.60
35497;DHT22;21609;49.298;6.844;2024-01-27T10:45:27;20.90;44.50
35497;DHT22;21609;49.298;6.844;2024-01-27T10:47:53;21.00;44.50
35497;DHT22;21609;49.298;6.844;2024-01-27T10:50:21;21.00;44.70
35497;DHT22;21609;49.298;6.844;2024-01-27T10:52:49;21.00;44.60
35497;DHT22;21609;49.298;6.844;2024-01-27T10:55:15;21.10;44.40
35497;DHT22;21609;49.298;6.844;2024-01-27T10:57:41;20.70;45.30
35497;DHT22;21609;49.298;6.844;2024-01-27T11:00:07;20.40;46.00
35497;DHT22;21609;49.298;6.844;2024-01-27T11:02:35;20.20;46.50
35497;DHT22;21609;49.298;6.844;2024-01-27T11:05:04;20.10;46.90
35497;DHT22;21609;49.298;6.844;2024-01-27T11:07:34;20.70;45.90
35497;DHT22;21609;49.298;6.844;2024-01-27T11:10:01;20.90;45.20
35497;DHT22;21609;49.298;6.844;2024-01-27T11:12:27;21.10;44.80
35497;DHT22;21609;49.298;6.844;2024-01-27T11:14:53;21.20;44.60
35497;DHT22;21609;49.298;6.844;2024-01-27T11:17:19;21.30;44.50
35497;DHT22;21609;49.298;6.844;2024-01-27T11:19:45;21.20;45.10
35497;DHT22;21609;49.298;6.844;2024-01-27T11:24:50;20.40;46.00
35497;DHT22;21609;49.298;6.844;2024-01-27T11:27:15;20.20;46.60
35497;DHT22;21609;49.298;6.844;2024-01-27T11:29:47;20.20;47.10
35497;DHT22;21609;49.298;6.844;2024-01-27T11:32:14;20.20;47.30
35497;DHT22;21609;49.298;6.844;2024-01-27T11:34:44;20.20;47.40
35497;DHT22;21609;49.298;6.844;2024-01-27T11:37:11;20.20;47.60
35497;DHT22;21609;49.298;6.844;2024-01-27T11:39:37;20.20;47.50
35497;DHT22;21609;49.298;6.844;2024-01-27T11:42:07;20.20;47.60
35497;DHT22;21609;49.298;6.844;2024-01-27T11:44:37;20.20;47.60
35497;DHT22;21609;49.298;6.844;2024-01-27T11:47:03;20.20;47.80
35497;DHT22;21609;49.298;6.844;2024-01-27T11:49:29;20.20;47.80
35497;DHT22;21609;49.298;6.844;2024-01-27T11:51:54;20.30;47.90
35497;DHT22;21609;49.298;6.844;2024-01-27T11:54:20;20.30;47.80
35497;DHT22;21609;49.298;6.844;2024-01-27T11:56:46;20.40;47.70
35497;DHT22;21609;49.298;6.844;2024-01-27T11:59:11;20.40;47.60
35497;DHT22;21609;49.298;6.844;2024-01-27T12:01:37;20.40;47.40
35497;DHT22;21609;49.298;6.844;2024-01-27T12:04:07;20.40;47.60
35497;DHT22;21609;49.298;6.844;2024-01-27T12:06:33;20.40;47.80
35497;DHT22;21609;49.298;6.844;2024-01-27T12:08:58;20.60;47.70
35497;DHT22;21609;49.298;6.844;2024-01-27T12:11:25;20.70;47.50
35497;DHT22;21609;49.298;6.844;2024-01-27T12:13:51;20.70;47.50
35497;DHT22;21609;49.298;6.844;2024-01-27T12:16:17;20.80;47.40
35497;DHT22;21609;49.298;6.844;2024-01-27T12:18:44;20.80;47.40
35497;DHT22;21609;49.298;6.844;2024-01-27T12:21:10;20.80;47.20
35497;DHT22;21609;49.298;6.844;2024-01-27T12:23:35;20.90;47.30
35497;DHT22;21609;49.298;6.844;2024-01-27T12:26:01;20.90;47.30
35497;DHT22;21609;49.298;6.844;2024-01-27T12:28:27;20.90;47.20
35497;DHT22;21609;49.298;6.844;2024-01-27T12:30:53;20.90;47.20
35497;DHT22;21609;49.298;6.844;2024-01-27T12:33:19;20.90;47.30
35497;DHT22;21609;49.298;6.844;2024-01-27T12:35:48;21.00;47.40
35497;DHT22;21609;49.298;6.844;2024-01-27T12:38:14;21.00;47.40
35497;DHT22;21609;49.298;6.844;2024-01-27T12:40:40;21.00;47.40
35497;DHT22;21609;49.298;6.844;2024-01-27T12:43:06;21.00;47.30
35497;DHT22;21609;49.298;6.844;2024-01-27T12:45:31;21.00;47.50
35497;DHT22;21609;49.298;6.844;2024-01-27T12:48:00;21.00;47.40
35497;DHT22;21609;49.298;6.844;2024-01-27T12:50:26;21.00;47.50
35497;DHT22;21609;49.298;6.844;2024-01-27T12:52:51;21.00;47.40
35497;DHT22;21609;49.298;6.844;2024-01-27T12:55:17;21.00;47.60
35497;DHT22;21609;49.298;6.844;2024-01-27T12:57:43;21.00;47.70
35497;DHT22;21609;49.298;6.844;2024-01-27T13:00:09;21.00;47.40
35497;DHT22;21609;49.298;6.844;2024-01-27T13:02:36;21.00;47.70
35497;DHT22;21609;49.298;6.844;2024-01-27T13:05:03;20.90;47.00
35497;DHT22;21609;49.298;6.844;2024-01-27T13:07:28;20.90;47.80
35497;DHT22;21609;49.298;6.844;2024-01-27T13:09:54;20.80;47.30
35497;DHT22;21609;49.298;6.844;2024-01-27T13:12:19;20.90;47.70
35497;DHT22;21609;49.298;6.844;2024-01-27T13:14:45;21.00;47.50
35497;DHT22;21609;49.298;6.844;2024-01-27T13:17:10;21.10;47.60
35497;DHT22;21609;49.298;6.844;2024-01-27T13:19:36;21.20;47.80
35497;DHT22;21609;49.298;6.844;2024-01-27T13:22:02;21.20;47.70
35497;DHT22;21609;49.298;6.844;2024-01-27T13:24:28;21.30;47.20
35497;DHT22;21609;49.298;6.844;2024-01-27T13:26:53;21.30;47.00
35497;DHT22;21609;49.298;6.844;2024-01-27T13:29:19;21.30;47.40
35497;DHT22;21609;49.298;6.844;2024-01-27T13:31:45;21.30;47.50
35497;DHT22;21609;49.298;6.844;2024-01-27T13:34:12;21.30;47.30
35497;DHT22;21609;49.298;6.844;2024-01-27T13:36:37;21.20;47.50
35497;DHT22;21609;49.298;6.844;2024-01-27T13:39:03;21.10;47.10
35497;DHT22;21609;49.298;6.844;2024-01-27T13:41:29;21.10;47.50
35497;DHT22;21609;49.298;6.844;2024-01-27T13:43:55;21.00;47.60
35497;DHT22;21609;49.298;6.844;2024-01-27T13:46:21;20.90;47.20
35497;DHT22;21609;49.298;6.844;2024-01-27T13:48:48;20.90;47.30
35497;DHT22;21609;49.298;6.844;2024-01-27T13:51:13;20.90;47.10
35497;DHT22;21609;49.298;6.844;2024-01-27T13:53:39;20.80;47.20
35497;DHT22;21609;49.298;6.844;2024-01-27T13:56:05;20.70;47.10
35497;DHT22;21609;49.298;6.844;2024-01-27T13:58:32;20.70;47.10
35497;DHT22;21609;49.298;6.844;2024-01-27T14:00:57;20.70;47.20
35497;DHT22;21609;49.298;6.844;2024-01-27T14:03:23;20.60;47.10
35497;DHT22;21609;49.298;6.844;2024-01-27T14:05:49;20.50;47.10
35497;DHT22;21609;49.298;6.844;2024-01-27T14:08:15;20.50;47.10
35497;DHT22;21609;49.298;6.844;2024-01-27T14:10:43;20.50;47.30
35497;DHT22;21609;49.298;6.844;2024-01-27T14:13:09;20.50;47.20
35497;DHT22;21609;49.298;6.844;2024-01-27T14:15:37;20.50;47.00
35497;DHT22;21609;49.298;6.844;2024-01-27T14:18:03;20.50;47.10
35497;DHT22;21609;49.298;6.844;2024-01-27T14:20:32;20.40;46.80
35497;DHT22;21609;49.298;6.844;2024-01-27T14:23:00;20.40;47.50
35497;DHT22;21609;49.298;6.844;2024-01-27T14:25:25;20.30;47.20
35497;DHT22;21609;49.298;6.844;2024-01-27T14:27:51;20.30;47.20
35497;DHT22;21609;49.298;6.844;2024-01-27T14:30:17;20.30;47.10
35497;DHT22;21609;49.298;6.844;2024-01-27T14:32:43;20.30;47.20
35497;DHT22;21609;49.298;6.844;2024-01-27T14:35:09;20.30;47.20
35497;DHT22;21609;49.298;6.844;2024-01-27T14:37:35;20.30;47.10
35497;DHT22;21609;49.298;6.844;2024-01-27T14:40:00;20.30;47.30
35497;DHT22;21609;49.298;6.844;2024-01-27T14:42:26;20.30;47.10
35497;DHT22;21609;49.298;6.844;2024-01-27T14:44:51;20.20;47.10
35497;DHT22;21609;49.298;6.844;2024-01-27T14:47:20;20.20;47.00
35497;DHT22;21609;49.298;6.844;2024-01-27T14:49:49;20.20;47.10
35497;DHT22;21609;49.298;6.844;2024-01-27T14:52:14;20.20;47.00
35497;DHT22;21609;49.298;6.844;2024-01-27T14:54:40;20.20;47.10
35497;DHT22;21609;49.298;6.844;2024-01-27T14:57:06;20.20;47.10
35497;DHT22;21609;49.298;6.844;2024-01-27T14:59:35;20.10;47.10
35497;DHT22;21609;49.298;6.844;2024-01-27T15:02:01;20.10;47.00
35497;DHT22;21609;49.298;6.844;2024-01-27T15:04:27;20.10;47.10
35497;DHT22;21609;49.298;6.844;2024-01-27T15:06:53;20.00;47.00
35497;DHT22;21609;49.298;6.844;2024-01-27T15:09:20;20.00;47.00
35497;DHT22;21609;49.298;6.844;2024-01-27T15:11:46;20.00;47.10
35497;DHT22;21609;49.298;6.844;2024-01-27T15:14:12;19.90;47.20
35497;DHT22;21609;49.298;6.844;2024-01-27T15:16:37;19.90;47.20
35497;DHT22;21609;49.298;6.844;2024-01-27T15:19:03;20.00;47.10
35497;DHT22;21609;49.298;6.844;2024-01-27T15:21:29;20.00;47.10
35497;DHT22;21609;49.298;6.844;2024-01-27T15:23:56;19.90;47.10
35497;DHT22;21609;49.298;6.844;2024-01-27T15:26:22;19.90;47.20